createdAt,value
2023-05-05T00:03:44.024Z,100.00
2023-05-05T00:07:45.498Z,100.00
2023-05-05T00:11:47.003Z,100.00
2023-05-05T00:15:49.937Z,100.00
2023-05-05T00:19:51.408Z,100.00
2023-05-05T00:23:52.870Z,100.00
2023-05-05T00:27:54.317Z,100.00
2023-05-05T00:31:56.438Z,100.00
2023-05-05T00:35:58.199Z,100.00
2023-05-05T00:40:00.166Z,100.00
2023-05-05T00:44:01.693Z,100.00
2023-05-05T00:48:03.787Z,100.00
2023-05-05T00:52:07.215Z,100.00
2023-05-05T00:56:08.895Z,100.00
2023-05-05T01:00:11.324Z,100.00
2023-05-05T01:04:12.831Z,100.00
2023-05-05T01:08:27.542Z,100.00
2023-05-05T01:12:37.443Z,100.00
2023-05-05T01:16:43.702Z,100.00
2023-05-05T01:20:55.614Z,100.00
2023-05-05T01:25:22.144Z,100.00
2023-05-05T01:29:34.462Z,100.00
2023-05-05T01:33:43.880Z,100.00
2023-05-05T01:38:07.061Z,100.00
2023-05-05T01:42:13.837Z,100.00
2023-05-05T01:46:16.482Z,100.00
2023-05-05T01:50:19.288Z,100.00
2023-05-05T01:54:24.082Z,100.00
2023-05-05T01:58:28.098Z,100.00
2023-05-05T02:02:30.432Z,100.00
2023-05-05T02:06:33.223Z,100.00
2023-05-05T02:10:40.739Z,100.00
2023-05-05T02:14:44.555Z,100.00
2023-05-05T02:18:49.141Z,100.00
2023-05-05T02:22:50.815Z,100.00
2023-05-05T02:26:54.550Z,100.00
2023-05-05T02:30:59.358Z,100.00
2023-05-05T02:35:09.139Z,100.00
2023-05-05T02:39:25.795Z,100.00
2023-05-05T02:43:31.339Z,100.00
2023-05-05T02:47:37.168Z,100.00
2023-05-05T02:51:40.194Z,100.00
2023-05-05T02:56:17.854Z,100.00
2023-05-05T03:00:38.365Z,100.00
2023-05-05T03:05:04.147Z,100.00
2023-05-05T03:09:14.052Z,100.00
2023-05-05T03:13:24.653Z,100.00
2023-05-05T03:17:29.239Z,100.00
2023-05-05T03:21:32.507Z,100.00
2023-05-05T03:25:43.829Z,100.00
2023-05-05T03:29:49.361Z,99.30
2023-05-05T03:33:51.294Z,97.17
2023-05-05T03:37:55.967Z,96.75
2023-05-05T03:41:57.575Z,94.13
2023-05-05T03:46:02.838Z,92.46
2023-05-05T03:50:05.132Z,95.29
2023-05-05T03:54:06.986Z,94.55
2023-05-05T03:58:08.551Z,94.40
2023-05-05T04:02:10.159Z,94.35
2023-05-05T04:06:11.672Z,90.86
2023-05-05T04:10:13.357Z,89.94
2023-05-05T04:14:15.083Z,90.13
2023-05-05T04:18:17.051Z,89.48
2023-05-05T04:22:19.167Z,88.37
2023-05-05T04:26:21.010Z,86.15
2023-05-05T04:30:23.304Z,86.04
2023-05-05T04:34:24.993Z,88.17
2023-05-05T04:38:26.967Z,87.74
2023-05-05T04:42:28.652Z,85.26
2023-05-05T04:46:30.863Z,84.25
2023-05-05T04:50:32.570Z,85.91
2023-05-05T04:54:37.416Z,84.38
2023-05-05T04:58:38.916Z,84.80
2023-05-05T05:02:41.503Z,84.40
2023-05-05T05:06:45.136Z,85.68
2023-05-05T05:10:47.400Z,83.11
2023-05-05T05:14:49.055Z,82.16
2023-05-05T05:18:50.829Z,81.75
2023-05-05T05:22:52.724Z,82.36
2023-05-05T05:26:56.286Z,82.61
2023-05-05T05:30:58.042Z,83.34
2023-05-05T05:35:00.192Z,81.75
2023-05-05T05:39:01.916Z,82.13
2023-05-05T05:43:04.098Z,81.57
2023-05-05T05:47:06.833Z,79.85
2023-05-05T05:51:08.419Z,81.22
2023-05-05T05:55:10.089Z,82.46
2023-05-05T05:59:12.676Z,82.65
2023-05-05T06:03:15.815Z,82.59
2023-05-05T06:07:17.692Z,81.97
2023-05-05T06:11:19.700Z,83.94
2023-05-05T06:15:21.451Z,84.62
2023-05-05T06:19:23.524Z,85.18
2023-05-05T06:23:25.614Z,83.63
2023-05-05T06:27:32.096Z,84.84
2023-05-05T06:31:33.576Z,82.26
2023-05-05T06:35:35.125Z,84.24
2023-05-05T06:39:36.721Z,81.44
2023-05-05T06:43:38.130Z,79.52
2023-05-05T06:47:44.684Z,79.55
2023-05-05T06:51:46.180Z,79.17
2023-05-05T06:55:48.228Z,76.72
2023-05-05T06:59:49.689Z,75.60
2023-05-05T07:03:52.195Z,77.68
2023-05-05T07:07:55.151Z,76.45
2023-05-05T07:11:56.741Z,75.96
2023-05-05T07:15:58.849Z,75.68
2023-05-05T07:20:00.414Z,72.01
2023-05-05T07:24:05.340Z,69.99
2023-05-05T07:28:07.004Z,73.14
2023-05-05T07:32:08.499Z,72.45
2023-05-05T07:36:09.987Z,72.29
2023-05-05T07:40:12.022Z,70.74
2023-05-05T07:44:13.582Z,67.95
2023-05-05T07:48:15.222Z,67.41
2023-05-05T07:52:16.625Z,69.97
2023-05-05T07:56:19.304Z,65.67
2023-05-05T08:00:22.050Z,63.97
2023-05-05T08:04:23.935Z,65.43
2023-05-05T08:08:26.903Z,63.37
2023-05-05T08:12:28.369Z,64.45
2023-05-05T08:16:29.880Z,62.86
2023-05-05T08:20:31.617Z,63.58
2023-05-05T08:24:33.137Z,66.48
2023-05-05T08:28:36.392Z,65.45
2023-05-05T08:32:38.407Z,65.65
2023-05-05T08:36:40.049Z,63.86
2023-05-05T08:40:42.144Z,61.38
2023-05-05T08:44:43.589Z,63.17
2023-05-05T08:48:45.909Z,66.83
2023-05-05T08:52:53.628Z,65.13
2023-05-05T08:56:59.727Z,64.18
2023-05-05T09:01:01.595Z,63.10
2023-05-05T09:05:05.371Z,60.61
2023-05-05T09:09:08.105Z,59.71
2023-05-05T09:13:09.653Z,60.59
2023-05-05T09:17:25.141Z,61.00
2023-05-05T09:21:27.689Z,59.86
2023-05-05T09:25:29.171Z,58.65
2023-05-05T09:29:30.865Z,55.10
2023-05-05T09:33:32.307Z,55.33
2023-05-05T09:37:33.770Z,57.19
2023-05-05T09:41:39.763Z,57.75
2023-05-05T09:45:41.221Z,57.65
2023-05-05T09:49:42.666Z,55.42
2023-05-05T09:53:44.220Z,54.90
2023-05-05T09:57:47.259Z,54.11
2023-05-05T10:01:49.881Z,53.11
2023-05-05T10:05:53.903Z,52.61
2023-05-05T10:09:55.398Z,56.47
2023-05-05T10:13:58.035Z,57.19
2023-05-05T10:18:07.838Z,58.02
2023-05-05T10:22:10.745Z,55.69
2023-05-05T10:26:13.739Z,52.62
2023-05-05T10:30:23.275Z,51.52
2023-05-05T10:35:02.776Z,50.87
2023-05-05T10:39:09.191Z,52.89
2023-05-05T10:43:10.977Z,51.97
2023-05-05T10:47:13.057Z,51.26
2023-05-05T10:51:39.514Z,52.10
2023-05-05T10:56:04.427Z,52.69
2023-05-05T11:00:08.463Z,52.35
2023-05-05T11:04:20.917Z,56.40
2023-05-05T11:08:28.893Z,55.70
2023-05-05T11:12:31.850Z,55.42
2023-05-05T11:16:47.211Z,55.28
2023-05-05T11:20:48.846Z,52.93
2023-05-05T11:24:50.406Z,53.01
2023-05-05T11:28:59.543Z,53.97
2023-05-05T11:33:27.327Z,54.16
2023-05-05T11:37:28.996Z,54.98
2023-05-05T11:41:30.358Z,55.22
2023-05-05T11:45:32.092Z,54.54
2023-05-05T11:49:38.742Z,54.61
2023-05-05T11:53:45.026Z,52.99
2023-05-05T11:57:46.504Z,51.47
2023-05-05T12:01:48.015Z,55.40
2023-05-05T12:05:54.402Z,56.47
2023-05-05T12:09:56.490Z,54.50
2023-05-05T12:14:08.369Z,51.92
2023-05-05T12:18:19.756Z,55.06
2023-05-05T12:22:24.179Z,56.77
2023-05-05T12:26:29.305Z,54.99
2023-05-05T12:30:30.893Z,56.92
2023-05-05T12:34:32.821Z,56.57
2023-05-05T12:38:35.756Z,58.44
2023-05-05T12:42:41.470Z,59.43
2023-05-05T12:46:47.198Z,56.91
2023-05-05T12:50:48.661Z,57.32
2023-05-05T12:54:57.036Z,63.20
2023-05-05T12:58:58.606Z,62.16
2023-05-05T13:03:00.371Z,59.60
2023-05-05T13:07:12.957Z,59.55
2023-05-05T13:11:14.412Z,64.72
2023-05-05T13:15:16.253Z,68.69
2023-05-05T13:19:17.981Z,67.35
2023-05-05T13:23:19.864Z,67.31
2023-05-05T13:27:21.404Z,66.35
2023-05-05T13:31:22.949Z,66.44
2023-05-05T13:35:24.590Z,67.59
2023-05-05T13:39:26.107Z,63.42
2023-05-05T13:43:27.586Z,58.61
2023-05-05T13:47:29.288Z,55.37
2023-05-05T13:51:30.997Z,58.52
2023-05-05T13:55:32.552Z,62.76
2023-05-05T13:59:34.021Z,63.60
2023-05-05T14:03:35.516Z,58.11
2023-05-05T14:07:36.997Z,59.07
2023-05-05T14:11:38.478Z,59.73
2023-05-05T14:15:39.966Z,59.34
2023-05-05T14:19:41.686Z,60.54
2023-05-05T14:23:43.172Z,65.42
2023-05-05T14:27:44.814Z,68.77
2023-05-05T14:31:46.417Z,70.58
2023-05-05T14:35:48.222Z,71.08
2023-05-05T14:39:49.643Z,71.97
2023-05-05T14:43:51.123Z,64.19
2023-05-05T14:47:52.688Z,67.31
2023-05-05T14:51:55.483Z,67.02
2023-05-05T14:55:58.207Z,68.99
2023-05-05T14:59:59.722Z,62.98
2023-05-05T15:04:01.447Z,62.94
2023-05-05T15:08:03.016Z,64.42
2023-05-05T15:12:04.862Z,64.36
2023-05-05T15:16:07.213Z,62.75
2023-05-05T15:20:09.359Z,66.33
2023-05-05T15:24:10.918Z,65.00
2023-05-05T15:28:12.442Z,63.94
2023-05-05T15:32:14.172Z,65.53
2023-05-05T15:36:17.438Z,66.23
2023-05-05T15:40:19.006Z,64.54
2023-05-05T15:44:20.617Z,61.41
2023-05-05T15:48:22.031Z,62.53
2023-05-05T15:52:23.642Z,62.88
2023-05-05T15:56:27.284Z,64.17
2023-05-05T16:00:28.815Z,65.53
2023-05-05T16:04:30.335Z,67.09
2023-05-05T16:08:32.049Z,71.54
2023-05-05T16:12:33.550Z,69.87
2023-05-05T16:16:35.165Z,69.30
2023-05-05T16:20:36.805Z,67.67
2023-05-05T16:24:38.299Z,65.02
2023-05-05T16:28:39.749Z,67.91
2023-05-05T16:32:41.701Z,70.48
2023-05-05T16:36:44.406Z,68.46
2023-05-05T16:40:46.141Z,64.79
2023-05-05T16:44:47.556Z,66.76
2023-05-05T16:48:48.975Z,69.05
2023-05-05T16:52:50.747Z,67.95
2023-05-05T16:56:52.325Z,72.19
2023-05-05T17:00:54.537Z,72.74
2023-05-05T17:04:56.228Z,73.46
2023-05-05T17:08:57.684Z,75.50
2023-05-05T17:12:59.129Z,75.47
2023-05-05T17:17:00.711Z,72.31
2023-05-05T17:21:02.479Z,71.74
2023-05-05T17:25:05.144Z,72.02
2023-05-05T17:29:06.606Z,74.09
2023-05-05T17:33:08.086Z,75.40
2023-05-05T17:37:09.695Z,70.28
2023-05-05T17:41:11.354Z,73.22
2023-05-05T17:45:12.954Z,73.58
2023-05-05T17:49:14.496Z,73.07
2023-05-05T17:53:16.013Z,73.40
2023-05-05T17:57:20.780Z,75.80
2023-05-05T18:01:23.788Z,77.53
2023-05-05T18:05:25.317Z,76.04
2023-05-05T18:09:27.290Z,77.88
2023-05-05T18:13:28.861Z,74.64
2023-05-05T18:17:30.620Z,74.27
2023-05-05T18:21:32.305Z,77.60
2023-05-05T18:25:33.805Z,75.85
2023-05-05T18:29:35.929Z,76.87
2023-05-05T18:33:37.466Z,77.80
2023-05-05T18:37:39.462Z,76.77
2023-05-05T18:41:40.993Z,77.24
2023-05-05T18:45:42.549Z,78.31
2023-05-05T18:49:45.328Z,75.80
2023-05-05T18:53:51.243Z,77.02
2023-05-05T18:57:53.288Z,76.22
2023-05-05T19:01:54.930Z,78.61
2023-05-05T19:05:56.391Z,80.11
2023-05-05T19:09:57.841Z,77.77
2023-05-05T19:13:59.263Z,77.86
2023-05-05T19:18:00.885Z,75.89
2023-05-05T19:22:03.621Z,77.21
2023-05-05T19:26:05.667Z,77.43
2023-05-05T19:30:07.727Z,76.71
2023-05-05T19:34:09.135Z,79.66
2023-05-05T19:38:10.910Z,80.44
2023-05-05T19:42:12.338Z,74.67
2023-05-05T19:46:14.443Z,77.13
2023-05-05T19:50:16.046Z,77.73
2023-05-05T19:54:18.072Z,80.71
2023-05-05T19:58:19.510Z,79.66
2023-05-05T20:02:26.481Z,79.59
2023-05-05T20:06:28.003Z,80.42
2023-05-05T20:10:29.484Z,80.64
2023-05-05T20:14:30.926Z,80.20
2023-05-05T20:18:32.515Z,82.65
2023-05-05T20:22:34.342Z,80.26
2023-05-05T20:26:36.564Z,81.47
2023-05-05T20:30:38.095Z,81.78
2023-05-05T20:34:39.588Z,82.16
2023-05-05T20:38:41.108Z,80.15
2023-05-05T20:42:42.724Z,79.60
2023-05-05T20:46:44.365Z,79.90
2023-05-05T20:50:46.021Z,79.94
2023-05-05T20:54:47.478Z,81.66
2023-05-05T20:58:49.023Z,80.43
2023-05-05T21:02:50.722Z,82.57
2023-05-05T21:06:52.233Z,85.05
2023-05-05T21:10:53.674Z,84.47
2023-05-05T21:14:58.426Z,88.82
2023-05-05T21:18:59.922Z,86.02
2023-05-05T21:23:01.553Z,86.53
2023-05-05T21:27:03.098Z,87.47
2023-05-05T21:31:21.318Z,88.06
2023-05-05T21:35:23.815Z,87.39
2023-05-05T21:39:25.426Z,89.63
2023-05-05T21:43:28.639Z,88.23
2023-05-05T21:47:30.108Z,85.71
2023-05-05T21:51:31.917Z,84.77
2023-05-05T21:55:33.334Z,83.31
2023-05-05T21:59:34.758Z,82.65
2023-05-05T22:03:36.270Z,83.17
2023-05-05T22:07:37.994Z,85.97
2023-05-05T22:11:39.437Z,83.97
2023-05-05T22:15:46.822Z,83.44
2023-05-05T22:19:50.477Z,85.36
2023-05-05T22:23:52.141Z,83.19
2023-05-05T22:27:53.659Z,83.94
2023-05-05T22:31:55.155Z,83.22
2023-05-05T22:35:57.030Z,80.03
2023-05-05T22:39:58.498Z,85.12
2023-05-05T22:43:59.966Z,84.66
2023-05-05T22:48:01.675Z,85.12
2023-05-05T22:52:03.414Z,83.35
2023-05-05T22:56:05.322Z,85.89
2023-05-05T23:00:08.772Z,84.91
2023-05-05T23:04:10.465Z,87.58
2023-05-05T23:08:11.932Z,89.35
2023-05-05T23:12:13.647Z,90.92
2023-05-05T23:16:15.331Z,93.92
2023-05-05T23:20:17.097Z,91.37
2023-05-05T23:24:18.807Z,92.22
2023-05-05T23:28:20.317Z,94.25
2023-05-05T23:32:21.920Z,96.71
2023-05-05T23:36:23.387Z,95.31
2023-05-05T23:40:24.900Z,97.94
2023-05-05T23:44:27.544Z,96.90
2023-05-05T23:48:28.972Z,97.73
2023-05-05T23:52:30.430Z,98.63
2023-05-05T23:56:31.829Z,98.68
